sensor_id;sensor_type;location;lat;lon;timestamp;P1;durP1;ratioP1;P2;durP2;ratioP2
22449;SDS011;11392;57.390;-2.468;2023-09-08T00:00:25;9.93;;;8.38;;
22449;SDS011;11392;57.390;-2.468;2023-09-08T00:02:52;8.65;;;7.72;;
22449;SDS011;11392;57.390;-2.468;2023-09-08T00:05:19;8.65;;;7.45;;
22449;SDS011;11392;57.390;-2.468;2023-09-08T00:07:47;9.55;;;8.50;;
22449;SDS011;11392;57.390;-2.468;2023-09-08T00:10:13;8.82;;;7.93;;
22449;SDS011;11392;57.390;-2.468;2023-09-08T00:12:41;8.10;;;7.10;;
22449;SDS011;11392;57.390;-2.468;2023-09-08T00:15:08;9.10;;;7.53;;
22449;SDS011;11392;57.390;-2.468;2023-09-08T00:17:36;10.30;;;7.72;;
22449;SDS011;11392;57.390;-2.468;2023-09-08T00:20:05;8.48;;;7.57;;
22449;SDS011;11392;57.390;-2.468;2023-09-08T00:22:37;13.43;;;9.45;;
22449;SDS011;11392;57.390;-2.468;2023-09-08T00:25:04;7.97;;;7.18;;
22449;SDS011;11392;57.390;-2.468;2023-09-08T00:27:32;8.75;;;7.38;;
22449;SDS011;11392;57.390;-2.468;2023-09-08T00:29:59;9.38;;;8.48;;
22449;SDS011;11392;57.390;-2.468;2023-09-08T00:32:28;9.95;;;8.85;;
22449;SDS011;11392;57.390;-2.468;2023-09-08T00:34:56;9.48;;;8.57;;
22449;SDS011;11392;57.390;-2.468;2023-09-08T00:37:23;8.15;;;7.35;;
22449;SDS011;11392;57.390;-2.468;2023-09-08T00:39:50;10.23;;;8.85;;
22449;SDS011;11392;57.390;-2.468;2023-09-08T00:42:17;9.35;;;8.32;;
22449;SDS011;11392;57.390;-2.468;2023-09-08T00:44:44;13.60;;;10.25;;
22449;SDS011;11392;57.390;-2.468;2023-09-08T00:47:11;10.63;;;9.55;;
22449;SDS011;11392;57.390;-2.468;2023-09-08T00:49:38;13.07;;;11.48;;
22449;SDS011;11392;57.390;-2.468;2023-09-08T00:52:06;12.68;;;11.40;;
22449;SDS011;11392;57.390;-2.468;2023-09-08T00:54:32;12.98;;;10.82;;
22449;SDS011;11392;57.390;-2.468;2023-09-08T00:57:01;12.02;;;10.82;;
22449;SDS011;11392;57.390;-2.468;2023-09-08T00:59:32;10.45;;;9.45;;
22449;SDS011;11392;57.390;-2.468;2023-09-08T01:01:59;11.57;;;10.35;;
22449;SDS011;11392;57.390;-2.468;2023-09-08T01:04:27;11.50;;;9.15;;
22449;SDS011;11392;57.390;-2.468;2023-09-08T01:06:55;12.70;;;10.20;;
22449;SDS011;11392;57.390;-2.468;2023-09-08T01:09:23;9.95;;;8.90;;
22449;SDS011;11392;57.390;-2.468;2023-09-08T01:11:51;11.48;;;9.25;;
22449;SDS011;11392;57.390;-2.468;2023-09-08T01:14:18;10.65;;;9.52;;
22449;SDS011;11392;57.390;-2.468;2023-09-08T01:16:48;9.23;;;8.30;;
22449;SDS011;11392;57.390;-2.468;2023-09-08T01:19:15;10.73;;;8.82;;
22449;SDS011;11392;57.390;-2.468;2023-09-08T01:27:30;11.50;;;9.15;;
22449;SDS011;11392;57.390;-2.468;2023-09-08T01:30:01;11.20;;;9.85;;
22449;SDS011;11392;57.390;-2.468;2023-09-08T01:32:29;12.77;;;9.73;;
22449;SDS011;11392;57.390;-2.468;2023-09-08T01:34:57;10.55;;;9.45;;
22449;SDS011;11392;57.390;-2.468;2023-09-08T01:37:25;10.90;;;9.80;;
22449;SDS011;11392;57.390;-2.468;2023-09-08T01:39:52;8.73;;;7.82;;
22449;SDS011;11392;57.390;-2.468;2023-09-08T01:42:20;12.63;;;9.80;;
22449;SDS011;11392;57.390;-2.468;2023-09-08T01:44:47;11.68;;;8.75;;
22449;SDS011;11392;57.390;-2.468;2023-09-08T01:47:14;10.70;;;8.90;;
22449;SDS011;11392;57.390;-2.468;2023-09-08T01:49:41;10.60;;;9.60;;
22449;SDS011;11392;57.390;-2.468;2023-09-08T01:52:08;9.98;;;9.00;;
22449;SDS011;11392;57.390;-2.468;2023-09-08T01:54:35;10.75;;;9.65;;
22449;SDS011;11392;57.390;-2.468;2023-09-08T01:57:02;10.15;;;9.15;;
22449;SDS011;11392;57.390;-2.468;2023-09-08T01:59:30;10.30;;;8.02;;
22449;SDS011;11392;57.390;-2.468;2023-09-08T02:01:57;12.32;;;11.02;;
22449;SDS011;11392;57.390;-2.468;2023-09-08T02:04:24;12.27;;;9.60;;
22449;SDS011;11392;57.390;-2.468;2023-09-08T02:06:51;9.77;;;8.88;;
22449;SDS011;11392;57.390;-2.468;2023-09-08T02:09:18;9.32;;;7.97;;
22449;SDS011;11392;57.390;-2.468;2023-09-08T02:11:45;10.50;;;8.80;;
22449;SDS011;11392;57.390;-2.468;2023-09-08T02:14:12;11.20;;;9.10;;
22449;SDS011;11392;57.390;-2.468;2023-09-08T02:16:39;11.02;;;8.90;;
22449;SDS011;11392;57.390;-2.468;2023-09-08T02:19:06;9.02;;;8.15;;
22449;SDS011;11392;57.390;-2.468;2023-09-08T02:21:33;11.35;;;8.93;;
22449;SDS011;11392;57.390;-2.468;2023-09-08T02:24:00;9.77;;;8.88;;
22449;SDS011;11392;57.390;-2.468;2023-09-08T02:26:27;11.38;;;8.82;;
22449;SDS011;11392;57.390;-2.468;2023-09-08T02:28:55;11.05;;;9.30;;
22449;SDS011;11392;57.390;-2.468;2023-09-08T02:31:22;11.00;;;9.50;;
22449;SDS011;11392;57.390;-2.468;2023-09-08T02:33:49;11.23;;;8.60;;
22449;SDS011;11392;57.390;-2.468;2023-09-08T02:36:16;10.13;;;9.13;;
22449;SDS011;11392;57.390;-2.468;2023-09-08T02:38:43;9.40;;;8.38;;
22449;SDS011;11392;57.390;-2.468;2023-09-08T02:41:11;11.55;;;9.00;;
22449;SDS011;11392;57.390;-2.468;2023-09-08T02:43:38;11.60;;;8.70;;
22449;SDS011;11392;57.390;-2.468;2023-09-08T02:46:05;9.05;;;8.15;;
22449;SDS011;11392;57.390;-2.468;2023-09-08T02:48:32;12.00;;;9.27;;
22449;SDS011;11392;57.390;-2.468;2023-09-08T02:50:59;10.88;;;8.88;;
22449;SDS011;11392;57.390;-2.468;2023-09-08T02:53:26;10.27;;;9.27;;
22449;SDS011;11392;57.390;-2.468;2023-09-08T02:55:55;12.10;;;9.90;;
22449;SDS011;11392;57.390;-2.468;2023-09-08T02:58:23;10.68;;;9.68;;
22449;SDS011;11392;57.390;-2.468;2023-09-08T03:00:50;10.48;;;9.02;;
22449;SDS011;11392;57.390;-2.468;2023-09-08T03:03:19;10.80;;;9.48;;
22449;SDS011;11392;57.390;-2.468;2023-09-08T03:05:46;8.90;;;7.97;;
22449;SDS011;11392;57.390;-2.468;2023-09-08T03:08:13;10.27;;;8.05;;
22449;SDS011;11392;57.390;-2.468;2023-09-08T03:10:41;10.35;;;9.25;;
22449;SDS011;11392;57.390;-2.468;2023-09-08T03:13:08;10.35;;;9.35;;
22449;SDS011;11392;57.390;-2.468;2023-09-08T03:15:35;10.82;;;9.23;;
22449;SDS011;11392;57.390;-2.468;2023-09-08T03:18:02;12.57;;;9.23;;
22449;SDS011;11392;57.390;-2.468;2023-09-08T03:20:29;10.90;;;9.77;;
22449;SDS011;11392;57.390;-2.468;2023-09-08T03:22:57;11.73;;;9.38;;
22449;SDS011;11392;57.390;-2.468;2023-09-08T03:25:25;10.10;;;9.13;;
22449;SDS011;11392;57.390;-2.468;2023-09-08T03:27:52;12.25;;;10.48;;
22449;SDS011;11392;57.390;-2.468;2023-09-08T03:30:19;10.60;;;9.40;;
22449;SDS011;11392;57.390;-2.468;2023-09-08T03:32:46;11.95;;;9.20;;
22449;SDS011;11392;57.390;-2.468;2023-09-08T03:35:13;10.40;;;8.48;;
22449;SDS011;11392;57.390;-2.468;2023-09-08T03:37:40;12.32;;;10.88;;
22449;SDS011;11392;57.390;-2.468;2023-09-08T03:40:07;13.20;;;11.80;;
22449;SDS011;11392;57.390;-2.468;2023-09-08T03:42:35;12.20;;;10.77;;
22449;SDS011;11392;57.390;-2.468;2023-09-08T03:45:02;11.52;;;10.20;;
22449;SDS011;11392;57.390;-2.468;2023-09-08T03:47:31;12.40;;;11.10;;
22449;SDS011;11392;57.390;-2.468;2023-09-08T03:49:58;12.10;;;9.93;;
22449;SDS011;11392;57.390;-2.468;2023-09-08T03:52:25;11.75;;;10.48;;
22449;SDS011;11392;57.390;-2.468;2023-09-08T03:54:52;12.32;;;11.13;;
22449;SDS011;11392;57.390;-2.468;2023-09-08T03:57:19;10.88;;;9.77;;
22449;SDS011;11392;57.390;-2.468;2023-09-08T03:59:46;11.43;;;10.23;;
22449;SDS011;11392;57.390;-2.468;2023-09-08T04:02:13;12.45;;;10.30;;
22449;SDS011;11392;57.390;-2.468;2023-09-08T04:04:40;11.65;;;9.48;;
22449;SDS011;11392;57.390;-2.468;2023-09-08T04:07:07;11.50;;;10.32;;
22449;SDS011;11392;57.390;-2.468;2023-09-08T04:09:34;13.30;;;11.15;;
22449;SDS011;11392;57.390;-2.468;2023-09-08T04:12:01;11.65;;;9.73;;
22449;SDS011;11392;57.390;-2.468;2023-09-08T04:14:28;11.80;;;9.70;;
22449;SDS011;11392;57.390;-2.468;2023-09-08T04:16:56;12.30;;;10.60;;
22449;SDS011;11392;57.390;-2.468;2023-09-08T04:19:23;10.65;;;9.50;;
22449;SDS011;11392;57.390;-2.468;2023-09-08T04:21:50;13.85;;;10.60;;
22449;SDS011;11392;57.390;-2.468;2023-09-08T04:24:17;10.57;;;9.55;;
22449;SDS011;11392;57.390;-2.468;2023-09-08T04:26:44;12.77;;;8.73;;
22449;SDS011;11392;57.390;-2.468;2023-09-08T04:29:11;8.98;;;7.38;;
22449;SDS011;11392;57.390;-2.468;2023-09-08T04:31:39;10.18;;;7.30;;
22449;SDS011;11392;57.390;-2.468;2023-09-08T04:34:06;8.43;;;7.53;;
22449;SDS011;11392;57.390;-2.468;2023-09-08T04:36:33;10.27;;;7.97;;
22449;SDS011;11392;57.390;-2.468;2023-09-08T04:39:02;11.77;;;9.05;;
22449;SDS011;11392;57.390;-2.468;2023-09-08T04:41:29;9.93;;;8.93;;
22449;SDS011;11392;57.390;-2.468;2023-09-08T04:43:56;11.43;;;9.43;;
22449;SDS011;11392;57.390;-2.468;2023-09-08T04:46:24;11.32;;;8.75;;
22449;SDS011;11392;57.390;-2.468;2023-09-08T04:48:51;11.30;;;9.65;;
22449;SDS011;11392;57.390;-2.468;2023-09-08T04:51:18;12.35;;;10.45;;
22449;SDS011;11392;57.390;-2.468;2023-09-08T04:53:45;13.00;;;9.60;;
22449;SDS011;11392;57.390;-2.468;2023-09-08T04:56:13;10.70;;;9.45;;
22449;SDS011;11392;57.390;-2.468;2023-09-08T04:58:40;11.88;;;10.63;;
22449;SDS011;11392;57.390;-2.468;2023-09-08T05:01:07;10.40;;;9.30;;
22449;SDS011;11392;57.390;-2.468;2023-09-08T05:03:34;12.43;;;10.52;;
22449;SDS011;11392;57.390;-2.468;2023-09-08T05:06:02;13.82;;;9.02;;
22449;SDS011;11392;57.390;-2.468;2023-09-08T05:08:29;10.15;;;9.15;;
22449;SDS011;11392;57.390;-2.468;2023-09-08T05:10:56;12.15;;;9.73;;
22449;SDS011;11392;57.390;-2.468;2023-09-08T05:13:23;12.13;;;10.38;;
22449;SDS011;11392;57.390;-2.468;2023-09-08T05:15:57;11.85;;;9.55;;
22449;SDS011;11392;57.390;-2.468;2023-09-08T05:18:26;11.48;;;8.88;;
22449;SDS011;11392;57.390;-2.468;2023-09-08T05:20:53;13.98;;;9.30;;
22449;SDS011;11392;57.390;-2.468;2023-09-08T05:23:20;10.30;;;9.18;;
22449;SDS011;11392;57.390;-2.468;2023-09-08T05:25:47;10.20;;;8.48;;
22449;SDS011;11392;57.390;-2.468;2023-09-08T05:28:14;9.95;;;7.25;;
22449;SDS011;11392;57.390;-2.468;2023-09-08T05:30:41;10.45;;;9.02;;
22449;SDS011;11392;57.390;-2.468;2023-09-08T05:33:08;9.90;;;7.80;;
22449;SDS011;11392;57.390;-2.468;2023-09-08T05:35:35;11.25;;;7.95;;
22449;SDS011;11392;57.390;-2.468;2023-09-08T05:38:02;9.65;;;8.73;;
22449;SDS011;11392;57.390;-2.468;2023-09-08T05:40:30;11.10;;;8.90;;
22449;SDS011;11392;57.390;-2.468;2023-09-08T05:42:57;8.35;;;7.55;;
22449;SDS011;11392;57.390;-2.468;2023-09-08T05:45:24;9.27;;;7.78;;
22449;SDS011;11392;57.390;-2.468;2023-09-08T05:47:52;8.43;;;7.50;;
22449;SDS011;11392;57.390;-2.468;2023-09-08T05:50:19;11.15;;;7.80;;
22449;SDS011;11392;57.390;-2.468;2023-09-08T05:52:46;10.15;;;7.60;;
22449;SDS011;11392;57.390;-2.468;2023-09-08T05:55:13;9.77;;;8.05;;
22449;SDS011;11392;57.390;-2.468;2023-09-08T05:57:40;10.25;;;8.73;;
22449;SDS011;11392;57.390;-2.468;2023-09-08T06:00:07;10.70;;;8.48;;
22449;SDS011;11392;57.390;-2.468;2023-09-08T06:02:34;7.85;;;7.15;;
22449;SDS011;11392;57.390;-2.468;2023-09-08T06:05:02;8.45;;;6.90;;
22449;SDS011;11392;57.390;-2.468;2023-09-08T06:07:29;8.00;;;7.30;;
22449;SDS011;11392;57.390;-2.468;2023-09-08T06:09:56;9.73;;;7.72;;
22449;SDS011;11392;57.390;-2.468;2023-09-08T06:12:23;8.18;;;6.35;;
22449;SDS011;11392;57.390;-2.468;2023-09-08T06:14:50;10.32;;;6.78;;
22449;SDS011;11392;57.390;-2.468;2023-09-08T06:17:17;7.72;;;5.78;;
22449;SDS011;11392;57.390;-2.468;2023-09-08T06:19:44;8.73;;;6.28;;
22449;SDS011;11392;57.390;-2.468;2023-09-08T06:22:11;7.93;;;7.10;;
22449;SDS011;11392;57.390;-2.468;2023-09-08T06:24:38;7.55;;;6.82;;
22449;SDS011;11392;57.390;-2.468;2023-09-08T06:27:05;10.60;;;7.28;;
22449;SDS011;11392;57.390;-2.468;2023-09-08T06:29:33;6.75;;;5.95;;
22449;SDS011;11392;57.390;-2.468;2023-09-08T06:32:00;8.93;;;6.80;;
22449;SDS011;11392;57.390;-2.468;2023-09-08T06:34:27;9.32;;;5.88;;
22449;SDS011;11392;57.390;-2.468;2023-09-08T06:36:54;8.82;;;6.82;;
22449;SDS011;11392;57.390;-2.468;2023-09-08T06:39:21;9.82;;;6.38;;
22449;SDS011;11392;57.390;-2.468;2023-09-08T06:41:52;9.68;;;6.28;;
22449;SDS011;11392;57.390;-2.468;2023-09-08T06:44:20;9.18;;;6.15;;
22449;SDS011;11392;57.390;-2.468;2023-09-08T06:46:47;8.18;;;6.15;;
22449;SDS011;11392;57.390;-2.468;2023-09-08T06:49:14;9.68;;;6.65;;
22449;SDS011;11392;57.390;-2.468;2023-09-08T06:51:41;7.30;;;6.10;;
22449;SDS011;11392;57.390;-2.468;2023-09-08T06:54:08;9.10;;;6.57;;
22449;SDS011;11392;57.390;-2.468;2023-09-08T06:56:35;7.50;;;6.70;;
22449;SDS011;11392;57.390;-2.468;2023-09-08T06:59:03;6.78;;;6.00;;
22449;SDS011;11392;57.390;-2.468;2023-09-08T07:01:30;9.38;;;5.90;;
22449;SDS011;11392;57.390;-2.468;2023-09-08T07:03:57;7.00;;;6.32;;
22449;SDS011;11392;57.390;-2.468;2023-09-08T07:06:25;10.45;;;6.65;;
22449;SDS011;11392;57.390;-2.468;2023-09-08T07:08:52;7.03;;;6.03;;
22449;SDS011;11392;57.390;-2.468;2023-09-08T07:11:19;8.25;;;5.95;;
22449;SDS011;11392;57.390;-2.468;2023-09-08T07:13:46;7.47;;;5.55;;
22449;SDS011;11392;57.390;-2.468;2023-09-08T07:16:13;7.43;;;5.80;;
22449;SDS011;11392;57.390;-2.468;2023-09-08T07:18:40;6.88;;;5.85;;
22449;SDS011;11392;57.390;-2.468;2023-09-08T07:21:07;8.48;;;5.68;;
22449;SDS011;11392;57.390;-2.468;2023-09-08T07:23:35;6.43;;;5.07;;
22449;SDS011;11392;57.390;-2.468;2023-09-08T07:26:03;6.45;;;5.63;;
22449;SDS011;11392;57.390;-2.468;2023-09-08T07:28:30;8.80;;;5.68;;
22449;SDS011;11392;57.390;-2.468;2023-09-08T07:31:01;8.57;;;5.07;;
22449;SDS011;11392;57.390;-2.468;2023-09-08T07:33:30;8.32;;;5.03;;
22449;SDS011;11392;57.390;-2.468;2023-09-08T07:35:57;10.80;;;4.93;;
22449;SDS011;11392;57.390;-2.468;2023-09-08T07:38:29;9.35;;;5.13;;
22449;SDS011;11392;57.390;-2.468;2023-09-08T07:40:56;9.60;;;4.60;;
22449;SDS011;11392;57.390;-2.468;2023-09-08T07:43:23;7.40;;;5.18;;
22449;SDS011;11392;57.390;-2.468;2023-09-08T07:45:50;9.20;;;5.13;;
22449;SDS011;11392;57.390;-2.468;2023-09-08T07:48:17;8.82;;;4.35;;
22449;SDS011;11392;57.390;-2.468;2023-09-08T07:50:44;7.18;;;4.07;;
22449;SDS011;11392;57.390;-2.468;2023-09-08T07:53:12;6.55;;;4.28;;
22449;SDS011;11392;57.390;-2.468;2023-09-08T07:55:39;9.05;;;4.32;;
22449;SDS011;11392;57.390;-2.468;2023-09-08T07:58:07;5.50;;;4.18;;
22449;SDS011;11392;57.390;-2.468;2023-09-08T08:00:34;6.90;;;4.47;;
22449;SDS011;11392;57.390;-2.468;2023-09-08T08:03:04;6.88;;;3.67;;
22449;SDS011;11392;57.390;-2.468;2023-09-08T08:05:32;7.45;;;3.83;;
22449;SDS011;11392;57.390;-2.468;2023-09-08T08:07:59;7.35;;;4.13;;
22449;SDS011;11392;57.390;-2.468;2023-09-08T08:10:26;6.32;;;4.25;;
22449;SDS011;11392;57.390;-2.468;2023-09-08T08:12:54;5.55;;;3.85;;
22449;SDS011;11392;57.390;-2.468;2023-09-08T08:15:27;6.32;;;5.00;;
22449;SDS011;11392;57.390;-2.468;2023-09-08T08:18:05;7.90;;;4.15;;
22449;SDS011;11392;57.390;-2.468;2023-09-08T08:20:32;6.88;;;4.15;;
22449;SDS011;11392;57.390;-2.468;2023-09-08T08:23:03;7.13;;;4.03;;
22449;SDS011;11392;57.390;-2.468;2023-09-08T08:25:31;7.53;;;3.95;;
22449;SDS011;11392;57.390;-2.468;2023-09-08T08:27:59;7.72;;;3.60;;
22449;SDS011;11392;57.390;-2.468;2023-09-08T08:30:27;5.60;;;3.80;;
22449;SDS011;11392;57.390;-2.468;2023-09-08T08:32:56;7.00;;;3.53;;
22449;SDS011;11392;57.390;-2.468;2023-09-08T08:35:23;9.07;;;4.13;;
22449;SDS011;11392;57.390;-2.468;2023-09-08T08:37:50;5.35;;;3.78;;
22449;SDS011;11392;57.390;-2.468;2023-09-08T08:40:17;7.25;;;3.72;;
22449;SDS011;11392;57.390;-2.468;2023-09-08T08:42:44;6.88;;;3.92;;
22449;SDS011;11392;57.390;-2.468;2023-09-08T08:45:12;6.65;;;3.50;;
22449;SDS011;11392;57.390;-2.468;2023-09-08T08:47:41;6.60;;;3.85;;
22449;SDS011;11392;57.390;-2.468;2023-09-08T08:50:10;5.07;;;3.63;;
22449;SDS011;11392;57.390;-2.468;2023-09-08T08:52:38;8.63;;;3.85;;
22449;SDS011;11392;57.390;-2.468;2023-09-08T08:55:06;6.38;;;3.20;;
22449;SDS011;11392;57.390;-2.468;2023-09-08T08:57:38;6.47;;;3.40;;
22449;SDS011;11392;57.390;-2.468;2023-09-08T09:00:10;9.18;;;3.80;;
22449;SDS011;11392;57.390;-2.468;2023-09-08T09:02:39;7.38;;;3.95;;
22449;SDS011;11392;57.390;-2.468;2023-09-08T09:05:11;5.60;;;3.17;;
22449;SDS011;11392;57.390;-2.468;2023-09-08T09:07:42;4.25;;;3.45;;
22449;SDS011;11392;57.390;-2.468;2023-09-08T09:10:09;7.93;;;3.63;;
22449;SDS011;11392;57.390;-2.468;2023-09-08T09:12:37;6.25;;;3.30;;
22449;SDS011;11392;57.390;-2.468;2023-09-08T09:15:05;3.88;;;3.47;;
22449;SDS011;11392;57.390;-2.468;2023-09-08T09:17:33;6.47;;;3.42;;
22449;SDS011;11392;57.390;-2.468;2023-09-08T09:20:13;7.03;;;3.08;;
22449;SDS011;11392;57.390;-2.468;2023-09-08T09:22:46;8.68;;;3.83;;
22449;SDS011;11392;57.390;-2.468;2023-09-08T09:25:23;6.10;;;3.15;;
22449;SDS011;11392;57.390;-2.468;2023-09-08T09:27:58;5.55;;;2.95;;
22449;SDS011;11392;57.390;-2.468;2023-09-08T09:30:27;7.57;;;3.17;;
22449;SDS011;11392;57.390;-2.468;2023-09-08T09:33:12;4.65;;;3.33;;
22449;SDS011;11392;57.390;-2.468;2023-09-08T09:35:41;4.07;;;2.67;;
22449;SDS011;11392;57.390;-2.468;2023-09-08T09:38:12;6.63;;;3.00;;
22449;SDS011;11392;57.390;-2.468;2023-09-08T09:40:40;6.72;;;2.60;;
22449;SDS011;11392;57.390;-2.468;2023-09-08T09:43:07;5.35;;;2.80;;
22449;SDS011;11392;57.390;-2.468;2023-09-08T09:45:36;7.15;;;2.78;;
22449;SDS011;11392;57.390;-2.468;2023-09-08T09:48:05;5.55;;;2.80;;
22449;SDS011;11392;57.390;-2.468;2023-09-08T09:50:37;3.55;;;2.50;;
22449;SDS011;11392;57.390;-2.468;2023-09-08T09:53:10;6.00;;;2.95;;
22449;SDS011;11392;57.390;-2.468;2023-09-08T09:55:40;6.55;;;2.42;;
22449;SDS011;11392;57.390;-2.468;2023-09-08T09:58:08;4.70;;;2.75;;
22449;SDS011;11392;57.390;-2.468;2023-09-08T10:00:37;6.10;;;2.72;;
22449;SDS011;11392;57.390;-2.468;2023-09-08T10:03:07;3.50;;;2.30;;
22449;SDS011;11392;57.390;-2.468;2023-09-08T10:05:36;4.53;;;2.85;;
22449;SDS011;11392;57.390;-2.468;2023-09-08T10:08:04;6.32;;;3.08;;
22449;SDS011;11392;57.390;-2.468;2023-09-08T10:10:32;5.40;;;2.83;;
22449;SDS011;11392;57.390;-2.468;2023-09-08T10:13:01;6.60;;;2.88;;
22449;SDS011;11392;57.390;-2.468;2023-09-08T10:15:32;3.50;;;2.47;;
22449;SDS011;11392;57.390;-2.468;2023-09-08T10:18:00;5.13;;;2.53;;
22449;SDS011;11392;57.390;-2.468;2023-09-08T10:20:31;4.88;;;2.53;;
22449;SDS011;11392;57.390;-2.468;2023-09-08T10:23:07;6.10;;;2.72;;
22449;SDS011;11392;57.390;-2.468;2023-09-08T10:25:48;5.82;;;2.40;;
22449;SDS011;11392;57.390;-2.468;2023-09-08T10:28:24;6.55;;;2.60;;
22449;SDS011;11392;57.390;-2.468;2023-09-08T10:30:53;4.95;;;2.75;;
22449;SDS011;11392;57.390;-2.468;2023-09-08T10:33:20;5.97;;;2.97;;
22449;SDS011;11392;57.390;-2.468;2023-09-08T10:35:50;5.40;;;2.58;;
22449;SDS011;11392;57.390;-2.468;2023-09-08T10:38:22;6.20;;;2.28;;
22449;SDS011;11392;57.390;-2.468;2023-09-08T10:40:53;6.18;;;2.80;;
22449;SDS011;11392;57.390;-2.468;2023-09-08T10:43:45;4.13;;;2.30;;
22449;SDS011;11392;57.390;-2.468;2023-09-08T10:46:22;8.13;;;2.53;;
22449;SDS011;11392;57.390;-2.468;2023-09-08T10:48:50;4.30;;;2.38;;
22449;SDS011;11392;57.390;-2.468;2023-09-08T10:51:21;5.05;;;2.35;;
22449;SDS011;11392;57.390;-2.468;2023-09-08T10:53:50;4.85;;;2.20;;
22449;SDS011;11392;57.390;-2.468;2023-09-08T10:56:17;6.30;;;2.47;;
22449;SDS011;11392;57.390;-2.468;2023-09-08T10:58:48;5.88;;;2.50;;
22449;SDS011;11392;57.390;-2.468;2023-09-08T11:01:17;6.97;;;2.47;;
22449;SDS011;11392;57.390;-2.468;2023-09-08T11:03:54;5.05;;;2.10;;
22449;SDS011;11392;57.390;-2.468;2023-09-08T11:06:22;5.65;;;2.58;;
22449;SDS011;11392;57.390;-2.468;2023-09-08T11:08:50;5.55;;;2.28;;
22449;SDS011;11392;57.390;-2.468;2023-09-08T11:11:23;5.40;;;2.50;;
22449;SDS011;11392;57.390;-2.468;2023-09-08T11:13:50;7.03;;;2.85;;
22449;SDS011;11392;57.390;-2.468;2023-09-08T11:16:17;4.38;;;2.10;;
22449;SDS011;11392;57.390;-2.468;2023-09-08T11:18:50;3.97;;;1.98;;
22449;SDS011;11392;57.390;-2.468;2023-09-08T11:21:18;4.05;;;2.22;;
22449;SDS011;11392;57.390;-2.468;2023-09-08T11:23:46;7.72;;;2.83;;
22449;SDS011;11392;57.390;-2.468;2023-09-08T11:26:14;5.82;;;2.53;;
22449;SDS011;11392;57.390;-2.468;2023-09-08T11:28:43;4.10;;;2.28;;
22449;SDS011;11392;57.390;-2.468;2023-09-08T11:31:11;4.97;;;2.47;;
22449;SDS011;11392;57.390;-2.468;2023-09-08T11:33:39;5.50;;;2.30;;
22449;SDS011;11392;57.390;-2.468;2023-09-08T11:36:13;5.78;;;2.47;;
22449;SDS011;11392;57.390;-2.468;2023-09-08T11:38:45;5.75;;;2.45;;
22449;SDS011;11392;57.390;-2.468;2023-09-08T11:41:12;5.03;;;2.60;;
22449;SDS011;11392;57.390;-2.468;2023-09-08T11:43:40;4.68;;;2.22;;
22449;SDS011;11392;57.390;-2.468;2023-09-08T11:46:07;7.00;;;2.35;;
22449;SDS011;11392;57.390;-2.468;2023-09-08T11:48:37;6.15;;;2.85;;
22449;SDS011;11392;57.390;-2.468;2023-09-08T11:51:06;8.40;;;2.60;;
22449;SDS011;11392;57.390;-2.468;2023-09-08T11:53:35;5.82;;;2.53;;
22449;SDS011;11392;57.390;-2.468;2023-09-08T11:56:03;5.05;;;2.22;;
22449;SDS011;11392;57.390;-2.468;2023-09-08T11:58:31;8.18;;;2.75;;
22449;SDS011;11392;57.390;-2.468;2023-09-08T12:01:00;6.28;;;2.22;;
22449;SDS011;11392;57.390;-2.468;2023-09-08T12:03:27;6.75;;;2.28;;
22449;SDS011;11392;57.390;-2.468;2023-09-08T12:05:55;8.15;;;2.78;;
22449;SDS011;11392;57.390;-2.468;2023-09-08T12:08:24;7.30;;;2.35;;
22449;SDS011;11392;57.390;-2.468;2023-09-08T12:10:53;6.55;;;2.50;;
22449;SDS011;11392;57.390;-2.468;2023-09-08T12:13:21;10.65;;;2.80;;
22449;SDS011;11392;57.390;-2.468;2023-09-08T12:15:49;6.50;;;2.22;;
22449;SDS011;11392;57.390;-2.468;2023-09-08T12:18:16;4.28;;;2.13;;
22449;SDS011;11392;57.390;-2.468;2023-09-08T12:20:44;5.47;;;2.30;;
22449;SDS011;11392;57.390;-2.468;2023-09-08T12:23:15;5.93;;;2.30;;
22449;SDS011;11392;57.390;-2.468;2023-09-08T12:25:47;4.57;;;2.60;;
22449;SDS011;11392;57.390;-2.468;2023-09-08T12:28:17;5.70;;;2.50;;
22449;SDS011;11392;57.390;-2.468;2023-09-08T12:30:45;5.63;;;2.50;;
22449;SDS011;11392;57.390;-2.468;2023-09-08T12:33:13;6.07;;;2.15;;
22449;SDS011;11392;57.390;-2.468;2023-09-08T12:35:47;8.02;;;2.50;;
22449;SDS011;11392;57.390;-2.468;2023-09-08T12:38:19;4.70;;;2.30;;
22449;SDS011;11392;57.390;-2.468;2023-09-08T12:40:47;8.93;;;2.80;;
22449;SDS011;11392;57.390;-2.468;2023-09-08T12:43:14;6.00;;;2.67;;
22449;SDS011;11392;57.390;-2.468;2023-09-08T12:45:54;4.45;;;2.15;;
22449;SDS011;11392;57.390;-2.468;2023-09-08T12:48:23;6.00;;;2.50;;
22449;SDS011;11392;57.390;-2.468;2023-09-08T12:50:50;7.47;;;2.45;;
22449;SDS011;11392;57.390;-2.468;2023-09-08T12:53:18;5.45;;;2.55;;
22449;SDS011;11392;57.390;-2.468;2023-09-08T12:55:47;8.55;;;3.67;;
22449;SDS011;11392;57.390;-2.468;2023-09-08T12:58:14;5.20;;;2.33;;
22449;SDS011;11392;57.390;-2.468;2023-09-08T13:00:42;10.90;;;2.53;;
22449;SDS011;11392;57.390;-2.468;2023-09-08T13:03:10;5.25;;;2.40;;
22449;SDS011;11392;57.390;-2.468;2023-09-08T13:05:37;4.55;;;1.75;;
22449;SDS011;11392;57.390;-2.468;2023-09-08T13:08:05;6.75;;;2.30;;
22449;SDS011;11392;57.390;-2.468;2023-09-08T13:10:33;8.45;;;2.55;;
22449;SDS011;11392;57.390;-2.468;2023-09-08T13:13:00;3.17;;;1.92;;
22449;SDS011;11392;57.390;-2.468;2023-09-08T13:15:28;7.60;;;2.65;;
22449;SDS011;11392;57.390;-2.468;2023-09-08T13:17:55;5.70;;;2.95;;
22449;SDS011;11392;57.390;-2.468;2023-09-08T13:20:23;5.50;;;2.40;;
22449;SDS011;11392;57.390;-2.468;2023-09-08T13:22:50;3.53;;;2.20;;
22449;SDS011;11392;57.390;-2.468;2023-09-08T13:25:17;6.65;;;2.88;;
22449;SDS011;11392;57.390;-2.468;2023-09-08T13:27:44;4.68;;;2.72;;
22449;SDS011;11392;57.390;-2.468;2023-09-08T13:30:14;5.63;;;2.72;;
22449;SDS011;11392;57.390;-2.468;2023-09-08T13:32:43;5.97;;;3.05;;
22449;SDS011;11392;57.390;-2.468;2023-09-08T13:35:12;5.03;;;2.60;;
22449;SDS011;11392;57.390;-2.468;2023-09-08T13:37:39;6.65;;;2.50;;
22449;SDS011;11392;57.390;-2.468;2023-09-08T13:40:06;6.80;;;3.00;;
22449;SDS011;11392;57.390;-2.468;2023-09-08T13:42:35;6.63;;;3.10;;
22449;SDS011;11392;57.390;-2.468;2023-09-08T13:45:03;5.88;;;2.92;;
22449;SDS011;11392;57.390;-2.468;2023-09-08T13:47:30;6.00;;;2.80;;
22449;SDS011;11392;57.390;-2.468;2023-09-08T13:49:59;5.15;;;3.47;;
22449;SDS011;11392;57.390;-2.468;2023-09-08T13:52:31;6.80;;;2.75;;
22449;SDS011;11392;57.390;-2.468;2023-09-08T13:55:03;3.72;;;2.50;;
22449;SDS011;11392;57.390;-2.468;2023-09-08T13:57:50;5.05;;;3.35;;
22449;SDS011;11392;57.390;-2.468;2023-09-08T14:00:21;5.60;;;3.22;;
22449;SDS011;11392;57.390;-2.468;2023-09-08T14:02:50;5.80;;;3.40;;
22449;SDS011;11392;57.390;-2.468;2023-09-08T14:05:25;8.88;;;3.88;;
22449;SDS011;11392;57.390;-2.468;2023-09-08T14:08:00;6.22;;;3.60;;
22449;SDS011;11392;57.390;-2.468;2023-09-08T14:10:40;9.43;;;3.63;;
22449;SDS011;11392;57.390;-2.468;2023-09-08T14:13:18;4.97;;;3.38;;
22449;SDS011;11392;57.390;-2.468;2023-09-08T14:15:46;10.45;;;3.88;;
22449;SDS011;11392;57.390;-2.468;2023-09-08T14:18:13;6.10;;;3.65;;
22449;SDS011;11392;57.390;-2.468;2023-09-08T14:20:42;6.43;;;3.63;;
22449;SDS011;11392;57.390;-2.468;2023-09-08T14:23:10;10.20;;;4.00;;
22449;SDS011;11392;57.390;-2.468;2023-09-08T14:25:37;5.50;;;3.15;;
22449;SDS011;11392;57.390;-2.468;2023-09-08T14:28:04;8.07;;;3.92;;
22449;SDS011;11392;57.390;-2.468;2023-09-08T14:30:33;6.28;;;3.45;;
22449;SDS011;11392;57.390;-2.468;2023-09-08T14:33:02;5.60;;;3.40;;
22449;SDS011;11392;57.390;-2.468;2023-09-08T14:35:30;7.90;;;3.70;;
22449;SDS011;11392;57.390;-2.468;2023-09-08T14:37:57;5.97;;;3.60;;
22449;SDS011;11392;57.390;-2.468;2023-09-08T14:40:24;6.80;;;3.70;;